createdAt,value
2018-02-15T00:01:34.233Z,33.47
2018-02-15T00:04:02.585Z,30.83
2018-02-15T00:06:30.900Z,31.40
2018-02-15T00:08:59.224Z,28.62
2018-02-15T00:11:28.450Z,26.37
2018-02-15T00:13:56.811Z,32.40
2018-02-15T00:16:25.910Z,35.35
2018-02-15T00:18:54.264Z,26.95
2018-02-15T00:21:24.080Z,27.58
2018-02-15T00:23:52.420Z,32.88
2018-02-15T00:26:21.546Z,33.88
2018-02-15T00:28:49.905Z,36.35
2018-02-15T00:31:18.244Z,29.23
2018-02-15T00:33:46.677Z,33.88
2018-02-15T00:36:15.012Z,25.00
2018-02-15T00:38:44.093Z,39.13
2018-02-15T00:41:12.436Z,35.95
2018-02-15T00:43:40.734Z,37.67
2018-02-15T00:46:09.095Z,36.50
2018-02-15T00:48:37.709Z,30.83
2018-02-15T00:51:06.073Z,43.72
2018-02-15T00:53:34.443Z,36.97
2018-02-15T00:56:03.179Z,38.78
2018-02-15T00:58:31.493Z,34.65
2018-02-15T01:00:59.794Z,36.45
2018-02-15T01:03:28.121Z,36.17
2018-02-15T01:05:57.194Z,46.40
2018-02-15T01:08:25.527Z,33.85
2018-02-15T01:10:53.870Z,42.17
2018-02-15T01:13:22.975Z,38.63
2018-02-15T01:15:51.290Z,48.53
2018-02-15T01:18:19.941Z,31.73
2018-02-15T01:20:49.066Z,40.30
2018-02-15T01:23:17.410Z,35.75
2018-02-15T01:25:47.073Z,41.37
2018-02-15T01:28:15.402Z,35.08
2018-02-15T01:30:44.514Z,42.25
2018-02-15T01:33:12.985Z,44.72
2018-02-15T01:35:42.050Z,39.38
2018-02-15T01:38:10.348Z,37.40
2018-02-15T01:40:39.763Z,43.28
2018-02-15T01:43:08.105Z,39.85
2018-02-15T01:45:36.413Z,44.22
2018-02-15T01:48:05.711Z,24.33
2018-02-15T01:50:34.871Z,28.10
2018-02-15T01:53:03.175Z,33.80
2018-02-15T01:55:32.299Z,29.02
2018-02-15T01:58:00.612Z,33.03
2018-02-15T02:00:29.028Z,33.85
2018-02-15T02:02:58.648Z,38.67
2018-02-15T02:05:27.754Z,37.42
2018-02-15T02:07:56.823Z,40.00
2018-02-15T02:10:25.138Z,33.20
2018-02-15T02:12:53.490Z,35.83
2018-02-15T02:15:21.815Z,31.23
2018-02-15T02:17:50.153Z,32.50
2018-02-15T02:20:19.798Z,33.35
2018-02-15T02:22:48.128Z,32.45
2018-02-15T02:25:16.846Z,31.80
2018-02-15T02:27:45.183Z,37.60
2018-02-15T02:30:13.502Z,34.47
2018-02-15T02:32:41.837Z,35.05
2018-02-15T02:35:10.146Z,38.60
2018-02-15T02:37:39.227Z,38.35
2018-02-15T02:40:08.882Z,36.10
2018-02-15T02:42:37.344Z,46.03
2018-02-15T02:45:05.666Z,34.50
2018-02-15T02:47:34.682Z,42.15
2018-02-15T02:50:03.166Z,31.42
2018-02-15T02:52:31.496Z,39.15
2018-02-15T02:55:00.124Z,39.67
2018-02-15T02:57:28.639Z,35.75
2018-02-15T02:59:56.965Z,52.28
2018-02-15T03:02:25.345Z,37.22
2018-02-15T03:04:53.685Z,40.40
2018-02-15T03:07:22.036Z,36.72
2018-02-15T03:09:51.528Z,33.65
2018-02-15T03:12:19.858Z,46.30
2018-02-15T03:14:48.179Z,39.33
2018-02-15T03:17:16.774Z,34.47
2018-02-15T03:19:45.060Z,39.95
2018-02-15T03:22:15.973Z,33.88
2018-02-15T03:24:44.338Z,42.83
2018-02-15T03:27:12.676Z,35.60
2018-02-15T03:29:40.987Z,33.92
2018-02-15T03:32:09.838Z,45.55
2018-02-15T03:34:38.988Z,44.33
2018-02-15T03:37:07.384Z,38.92
2018-02-15T03:39:35.834Z,38.10
2018-02-15T03:42:04.250Z,46.65
2018-02-15T03:44:32.657Z,43.75
2018-02-15T03:47:01.871Z,43.15
2018-02-15T03:49:30.265Z,43.25
2018-02-15T03:51:58.671Z,37.75
2018-02-15T03:54:28.059Z,38.45
2018-02-15T03:56:56.404Z,39.88
2018-02-15T03:59:24.950Z,38.58
2018-02-15T04:01:53.401Z,38.72
2018-02-15T04:04:21.706Z,39.70
2018-02-15T04:06:50.226Z,39.70
2018-02-15T04:09:19.508Z,42.60
2018-02-15T04:11:47.974Z,54.90
2018-02-15T04:14:16.351Z,40.90
2018-02-15T04:16:45.516Z,39.97
2018-02-15T04:19:13.884Z,43.87
2018-02-15T04:21:42.279Z,38.75
2018-02-15T04:24:10.792Z,44.38
2018-02-15T04:26:39.157Z,39.00
2018-02-15T04:29:07.650Z,36.88
2018-02-15T04:31:36.279Z,38.85
2018-02-15T04:34:04.717Z,43.03
2018-02-15T04:36:33.199Z,45.90
2018-02-15T04:39:02.198Z,40.45
2018-02-15T04:41:30.676Z,41.58
2018-02-15T04:43:59.044Z,34.53
2018-02-15T04:46:27.537Z,42.92
2018-02-15T04:48:56.021Z,43.63
2018-02-15T04:51:25.178Z,38.88
2018-02-15T04:53:53.664Z,41.25
2018-02-15T04:56:21.990Z,47.28
2018-02-15T04:58:50.418Z,40.80
2018-02-15T05:01:19.574Z,43.40
2018-02-15T05:03:48.748Z,43.08
2018-02-15T05:06:17.204Z,40.55
2018-02-15T05:08:45.924Z,34.85
2018-02-15T05:11:14.405Z,50.42
2018-02-15T05:13:42.784Z,42.13
2018-02-15T05:16:11.246Z,55.95
2018-02-15T05:18:38.930Z,42.13
2018-02-15T05:21:07.425Z,43.83
2018-02-15T05:23:37.227Z,38.03
2018-02-15T05:26:05.616Z,45.75
2018-02-15T05:28:34.766Z,39.88
2018-02-15T05:31:03.178Z,46.63
2018-02-15T05:33:31.557Z,38.63
2018-02-15T05:36:00.040Z,45.53
2018-02-15T05:38:28.498Z,42.85
2018-02-15T05:40:56.911Z,38.85
2018-02-15T05:43:25.262Z,45.60
2018-02-15T05:45:54.178Z,50.12
2018-02-15T05:48:22.552Z,42.58
2018-02-15T05:50:51.032Z,51.22
2018-02-15T05:53:19.506Z,42.97
2018-02-15T05:55:47.916Z,43.45
2018-02-15T05:58:17.096Z,51.78
2018-02-15T06:00:45.558Z,45.55
2018-02-15T06:03:13.955Z,46.70
2018-02-15T06:05:42.343Z,47.00
2018-02-15T06:08:11.147Z,41.63
2018-02-15T06:10:39.605Z,49.72
2018-02-15T06:13:07.981Z,55.78
2018-02-15T06:15:36.321Z,41.42
2018-02-15T06:18:04.688Z,44.55
2018-02-15T06:20:33.225Z,48.45
2018-02-15T06:23:02.188Z,45.63
2018-02-15T06:25:30.603Z,46.00
2018-02-15T06:27:58.978Z,48.08
2018-02-15T06:30:28.042Z,43.97
2018-02-15T06:32:56.342Z,43.63
2018-02-15T06:35:24.661Z,47.10
2018-02-15T06:37:53.017Z,53.10
2018-02-15T06:40:21.481Z,52.05
2018-02-15T06:42:49.777Z,42.80
2018-02-15T06:45:18.139Z,46.10
2018-02-15T06:47:46.457Z,51.35
2018-02-15T06:50:14.965Z,48.40
2018-02-15T06:52:43.796Z,50.83
2018-02-15T06:55:12.089Z,55.38
2018-02-15T06:57:41.051Z,49.00
2018-02-15T07:00:09.653Z,47.55
2018-02-15T07:02:37.975Z,52.05
2018-02-15T07:05:06.367Z,49.40
2018-02-15T07:07:34.727Z,47.75
2018-02-15T07:10:03.055Z,44.72
2018-02-15T07:12:31.402Z,47.38
2018-02-15T07:15:00.137Z,50.10
2018-02-15T07:17:28.491Z,50.25
2018-02-15T07:19:56.955Z,41.83
2018-02-15T07:22:25.307Z,44.45
2018-02-15T07:24:53.629Z,39.40
2018-02-15T07:27:21.953Z,44.88
2018-02-15T07:29:51.084Z,43.05
2018-02-15T07:32:19.380Z,43.72
2018-02-15T07:34:47.020Z,41.37
2018-02-15T07:37:15.886Z,41.28
2018-02-15T07:39:44.289Z,43.67
2018-02-15T07:42:12.665Z,45.95
2018-02-15T07:44:41.029Z,37.83
2018-02-15T07:47:10.183Z,45.80
2018-02-15T07:49:38.498Z,42.40
2018-02-15T07:52:07.599Z,47.60
2018-02-15T07:54:35.914Z,40.10
2018-02-15T07:57:04.261Z,49.80
2018-02-15T07:59:32.813Z,42.80
2018-02-15T08:02:01.166Z,60.72
2018-02-15T08:04:30.262Z,44.60
2018-02-15T08:06:58.636Z,42.42
2018-02-15T08:09:26.971Z,48.80
2018-02-15T08:11:55.309Z,41.83
2018-02-15T08:14:23.904Z,42.00
2018-02-15T08:16:52.244Z,48.78
2018-02-15T08:19:20.625Z,42.75
2018-02-15T08:21:49.669Z,40.75
2018-02-15T08:24:18.019Z,41.47
2018-02-15T08:26:46.775Z,39.50
2018-02-15T08:29:15.135Z,38.85
2018-02-15T08:31:44.272Z,46.37
2018-02-15T08:34:12.584Z,32.47
2018-02-15T08:36:40.920Z,37.72
2018-02-15T08:39:09.247Z,41.85
2018-02-15T08:41:38.328Z,31.48
2018-02-15T08:44:07.178Z,35.42
2018-02-15T08:46:35.542Z,35.58
2018-02-15T08:49:03.870Z,43.95
2018-02-15T08:51:32.598Z,35.72
2018-02-15T08:54:01.695Z,47.88
2018-02-15T08:56:30.033Z,42.62
2018-02-15T08:58:58.400Z,36.25
2018-02-15T09:01:26.742Z,42.53
2018-02-15T09:03:55.137Z,47.70
2018-02-15T09:06:23.924Z,47.47
2018-02-15T09:08:52.283Z,46.90
2018-02-15T09:11:20.615Z,46.92
2018-02-15T09:13:49.009Z,42.58
2018-02-15T09:16:17.371Z,37.20
2018-02-15T09:18:45.761Z,39.00
2018-02-15T09:21:14.124Z,41.25
2018-02-15T09:23:42.471Z,45.55
2018-02-15T09:26:10.795Z,40.47
2018-02-15T09:28:40.031Z,42.08
2018-02-15T09:31:08.357Z,41.50
2018-02-15T09:33:36.705Z,40.17
2018-02-15T09:36:05.060Z,38.90
2018-02-15T09:38:34.164Z,44.75
2018-02-15T09:41:02.507Z,41.22
2018-02-15T09:43:30.896Z,39.22
2018-02-15T09:45:59.262Z,54.30
2018-02-15T09:48:27.631Z,46.75
2018-02-15T09:50:56.490Z,47.65
2018-02-15T09:53:24.823Z,40.03
2018-02-15T09:55:53.166Z,60.20
2018-02-15T09:58:21.522Z,44.22
2018-02-15T10:00:49.857Z,49.13
2018-02-15T10:03:18.389Z,43.33
2018-02-15T10:05:47.237Z,42.47
2018-02-15T10:08:15.590Z,41.53
2018-02-15T10:10:43.921Z,50.63
2018-02-15T10:13:12.879Z,41.83
2018-02-15T10:15:41.217Z,42.08
2018-02-15T10:18:09.540Z,41.67
2018-02-15T10:20:37.921Z,42.58
2018-02-15T10:23:06.254Z,34.88
2018-02-15T10:25:34.582Z,42.97
2018-02-15T10:28:03.766Z,40.25
2018-02-15T10:30:32.121Z,53.83
2018-02-15T10:33:00.455Z,47.90
2018-02-15T10:35:28.979Z,37.08
2018-02-15T10:37:57.283Z,44.10
2018-02-15T10:40:25.634Z,40.05
2018-02-15T10:42:54.263Z,45.63
2018-02-15T10:45:22.602Z,40.80
2018-02-15T10:47:50.916Z,38.95
2018-02-15T10:50:19.266Z,45.65
2018-02-15T10:52:47.596Z,43.63
2018-02-15T10:55:15.895Z,58.35
2018-02-15T10:57:44.761Z,38.72
2018-02-15T11:00:13.118Z,43.95
2018-02-15T11:02:42.284Z,44.00
2018-02-15T11:05:16.047Z,55.08
2018-02-15T11:07:44.384Z,45.15
2018-02-15T11:10:13.696Z,39.72
2018-02-15T11:12:42.851Z,46.50
2018-02-15T11:15:11.167Z,46.80
2018-02-15T11:17:40.339Z,42.88
2018-02-15T11:20:09.282Z,42.15
2018-02-15T11:22:37.633Z,36.50
2018-02-15T11:25:06.025Z,41.45
2018-02-15T11:27:34.380Z,43.83
2018-02-15T11:30:02.713Z,44.28
2018-02-15T11:32:31.052Z,42.62
2018-02-15T11:34:59.498Z,40.05
2018-02-15T11:37:27.826Z,43.35
2018-02-15T11:39:56.149Z,36.65
2018-02-15T11:42:24.994Z,50.35
2018-02-15T11:44:54.134Z,52.40
2018-02-15T11:47:22.495Z,46.00
2018-02-15T11:49:50.865Z,46.80
2018-02-15T11:52:20.000Z,45.58
2018-02-15T11:54:48.338Z,41.58
2018-02-15T11:57:17.723Z,49.22
2018-02-15T11:59:46.072Z,40.55
2018-02-15T12:02:14.423Z,39.00
2018-02-15T12:04:43.130Z,50.92
2018-02-15T12:07:11.443Z,45.00
2018-02-15T12:09:39.808Z,45.03
2018-02-15T12:12:08.162Z,45.55
2018-02-15T12:14:36.648Z,49.00
2018-02-15T12:17:04.958Z,47.50
2018-02-15T12:19:33.422Z,59.53
2018-02-15T12:22:01.770Z,48.67
2018-02-15T12:24:30.149Z,47.65
2018-02-15T12:26:59.139Z,43.50
2018-02-15T12:29:27.471Z,49.60
2018-02-15T12:31:55.814Z,48.00
2018-02-15T12:34:24.568Z,45.38
2018-02-15T12:36:52.897Z,45.53
2018-02-15T12:39:21.287Z,47.25
2018-02-15T12:41:49.668Z,42.00
2018-02-15T12:44:17.993Z,45.83
2018-02-15T12:46:46.359Z,39.85
2018-02-15T12:49:15.022Z,49.85
2018-02-15T12:51:43.348Z,44.22
2018-02-15T12:54:11.715Z,45.22
2018-02-15T12:56:40.104Z,49.25
2018-02-15T12:59:09.251Z,46.33
2018-02-15T13:01:38.371Z,52.42
2018-02-15T13:04:07.520Z,47.60
2018-02-15T13:06:35.867Z,50.17
2018-02-15T13:09:04.237Z,45.25
2018-02-15T13:11:33.009Z,47.15
2018-02-15T13:14:01.523Z,58.45
2018-02-15T13:16:47.577Z,43.05
2018-02-15T13:19:34.172Z,38.42
2018-02-15T13:22:04.160Z,45.85
2018-02-15T13:24:32.496Z,43.87
2018-02-15T13:27:01.608Z,46.80
2018-02-15T13:29:30.274Z,44.88
2018-02-15T13:31:58.685Z,41.40
2018-02-15T13:34:27.045Z,44.83
2018-02-15T13:36:55.412Z,41.63
2018-02-15T13:39:24.567Z,47.95
2018-02-15T13:41:52.914Z,44.20
2018-02-15T13:44:21.837Z,45.58
2018-02-15T13:46:50.171Z,45.50
2018-02-15T13:49:18.500Z,41.53
2018-02-15T13:51:47.408Z,42.95
2018-02-15T13:54:15.743Z,46.33
2018-02-15T13:56:44.114Z,48.78
2018-02-15T13:59:12.485Z,38.22
2018-02-15T14:01:40.806Z,41.85
2018-02-15T14:04:09.895Z,42.15
2018-02-15T14:06:39.073Z,45.67
2018-02-15T14:09:07.419Z,51.13
2018-02-15T14:11:35.773Z,40.50
2018-02-15T14:14:04.446Z,47.10
2018-02-15T14:16:32.793Z,50.33
2018-02-15T14:19:01.135Z,52.17
2018-02-15T14:21:30.495Z,47.25
2018-02-15T14:23:58.854Z,44.53
2018-02-15T14:26:27.172Z,50.47
2018-02-15T14:28:55.549Z,45.75
2018-02-15T14:31:23.869Z,54.65
2018-02-15T14:33:52.423Z,46.85
2018-02-15T14:36:21.687Z,49.45
2018-02-15T14:38:50.041Z,65.12
2018-02-15T14:41:18.343Z,59.75
2018-02-15T14:43:46.711Z,53.15
2018-02-15T14:46:15.092Z,64.78
2018-02-15T14:48:43.415Z,54.95
2018-02-15T14:51:12.517Z,56.17
2018-02-15T14:53:41.615Z,55.70
2018-02-15T14:56:10.781Z,67.85
2018-02-15T14:58:39.660Z,61.42
2018-02-15T15:01:07.992Z,62.83
2018-02-15T15:03:36.336Z,57.60
2018-02-15T15:06:04.698Z,65.28
2018-02-15T15:08:33.056Z,56.00
2018-02-15T15:11:01.405Z,56.33
2018-02-15T15:13:30.516Z,63.70
2018-02-15T15:15:58.892Z,70.90
2018-02-15T15:18:27.238Z,56.00
2018-02-15T15:20:57.179Z,59.40
2018-02-15T15:23:26.402Z,57.35
2018-02-15T15:25:54.774Z,65.20
2018-02-15T15:28:23.945Z,67.25
2018-02-15T15:30:53.116Z,69.03
2018-02-15T15:33:21.456Z,69.75
2018-02-15T15:35:50.198Z,65.10
2018-02-15T15:38:18.569Z,60.70
2018-02-15T15:40:46.955Z,60.03
2018-02-15T15:43:15.639Z,62.22
2018-02-15T15:45:43.977Z,58.67
2018-02-15T15:48:12.332Z,68.18
2018-02-15T15:50:40.731Z,59.20
2018-02-15T15:53:09.113Z,56.37
2018-02-15T15:55:37.464Z,60.03
2018-02-15T15:58:05.875Z,61.08
2018-02-15T16:00:34.178Z,57.85
2018-02-15T16:03:02.525Z,56.67
2018-02-15T16:05:31.371Z,63.10
2018-02-15T16:07:59.704Z,59.42
2018-02-15T16:10:28.036Z,63.42
2018-02-15T16:12:57.414Z,59.70
2018-02-15T16:15:25.750Z,56.60
2018-02-15T16:17:54.049Z,58.10
2018-02-15T16:20:23.249Z,77.90
2018-02-15T16:22:51.572Z,56.47
2018-02-15T16:25:19.958Z,53.08
2018-02-15T16:27:49.606Z,52.03
2018-02-15T16:30:18.719Z,59.35
2018-02-15T16:32:47.032Z,54.15
2018-02-15T16:35:16.149Z,56.78
2018-02-15T16:37:44.521Z,53.92
2018-02-15T16:40:12.868Z,54.22
2018-02-15T16:42:41.224Z,62.15
2018-02-15T16:45:09.560Z,61.42
2018-02-15T16:47:37.887Z,57.70
2018-02-15T16:50:07.024Z,59.40
2018-02-15T16:52:36.446Z,59.83
2018-02-15T16:55:04.753Z,59.08
2018-02-15T16:57:33.118Z,55.03
2018-02-15T17:00:01.502Z,62.83
2018-02-15T17:02:29.903Z,58.15
2018-02-15T17:04:58.286Z,54.50
2018-02-15T17:07:27.441Z,52.13
2018-02-15T17:09:55.804Z,54.90
2018-02-15T17:12:25.352Z,52.33
2018-02-15T17:14:53.888Z,51.45
2018-02-15T17:17:22.984Z,52.92
2018-02-15T17:19:52.110Z,51.72
2018-02-15T17:22:20.441Z,53.65
2018-02-15T17:24:48.786Z,50.03
2018-02-15T17:27:17.639Z,52.83
2018-02-15T17:29:46.158Z,58.30
2018-02-15T17:32:14.473Z,52.97
2018-02-15T17:34:43.873Z,60.20
2018-02-15T17:37:12.219Z,53.75
2018-02-15T17:39:40.583Z,55.92
2018-02-15T17:42:08.940Z,56.22
2018-02-15T17:44:37.265Z,65.53
2018-02-15T17:47:05.562Z,51.75
2018-02-15T17:49:33.979Z,55.08
2018-02-15T17:52:02.301Z,63.92
2018-02-15T17:54:30.657Z,57.97
2018-02-15T17:56:59.041Z,57.95
2018-02-15T17:59:27.361Z,58.78
2018-02-15T18:01:55.680Z,60.67
2018-02-15T18:04:24.063Z,66.60
2018-02-15T18:06:52.389Z,65.18
2018-02-15T18:09:20.796Z,64.35
2018-02-15T18:11:49.944Z,60.97
2018-02-15T18:14:18.313Z,65.93
2018-02-15T18:16:46.664Z,61.05
2018-02-15T18:19:15.343Z,61.42
2018-02-15T18:21:43.682Z,66.95
2018-02-15T18:24:12.004Z,56.50
2018-02-15T18:26:40.345Z,68.30
2018-02-15T18:29:08.646Z,62.25
2018-02-15T18:31:36.972Z,69.25
2018-02-15T18:34:06.100Z,63.70
2018-02-15T18:36:34.445Z,61.80
2018-02-15T18:39:02.858Z,63.47
2018-02-15T18:41:32.258Z,65.07
2018-02-15T18:44:00.593Z,61.58
2018-02-15T18:46:28.909Z,62.33
2018-02-15T18:48:57.247Z,72.80
2018-02-15T18:51:25.565Z,67.68
2018-02-15T18:53:53.935Z,67.50
2018-02-15T18:56:22.314Z,65.90
2018-02-15T18:58:50.825Z,64.78
2018-02-15T19:01:19.957Z,72.00
2018-02-15T19:03:48.615Z,65.68
2018-02-15T19:06:16.961Z,67.62
2018-02-15T19:08:45.287Z,71.43
2018-02-15T19:11:13.685Z,58.72
2018-02-15T19:13:42.035Z,73.68
2018-02-15T19:16:11.117Z,99.97
2018-02-15T19:18:39.478Z,77.90
2018-02-15T19:21:07.882Z,60.15
2018-02-15T19:23:36.963Z,67.75
2018-02-15T19:26:06.004Z,68.87
2018-02-15T19:28:34.314Z,66.18
2018-02-15T19:31:02.644Z,66.43
2018-02-15T19:33:31.834Z,60.88
2018-02-15T19:36:00.966Z,64.55
2018-02-15T19:38:29.295Z,63.30
2018-02-15T19:40:57.664Z,65.85
2018-02-15T19:43:26.000Z,79.40
2018-02-15T19:45:54.382Z,68.55
2018-02-15T19:48:22.862Z,71.78
2018-02-15T19:50:51.221Z,67.57
2018-02-15T19:53:19.583Z,73.43
2018-02-15T19:55:48.700Z,70.95
2018-02-15T19:58:17.031Z,67.45
2018-02-15T20:00:45.496Z,66.55
2018-02-15T20:03:13.849Z,78.97
2018-02-15T20:05:42.186Z,65.32
2018-02-15T20:08:10.532Z,71.12
2018-02-15T20:10:39.274Z,69.07
2018-02-15T20:13:08.395Z,75.70
2018-02-15T20:15:42.184Z,84.93
2018-02-15T20:18:10.529Z,83.25
2018-02-15T20:20:38.841Z,87.32
2018-02-15T20:23:07.216Z,94.10
2018-02-15T20:25:35.535Z,88.10
2018-02-15T20:28:17.048Z,81.80
2018-02-15T20:30:45.491Z,89.28
2018-02-15T20:33:13.820Z,79.85
2018-02-15T20:35:42.228Z,77.82
2018-02-15T20:38:16.072Z,78.80
2018-02-15T20:40:44.469Z,97.30
2018-02-15T20:43:13.630Z,74.37
2018-02-15T20:45:41.974Z,83.53
2018-02-15T20:48:10.457Z,79.37
2018-02-15T20:50:44.243Z,90.78
2018-02-15T20:53:18.159Z,80.85
2018-02-15T20:55:47.292Z,101.28
2018-02-15T20:58:15.644Z,87.05
2018-02-15T21:00:44.017Z,70.32
2018-02-15T21:03:13.100Z,77.22
2018-02-15T21:05:41.469Z,81.25
2018-02-15T21:08:10.098Z,78.97
2018-02-15T21:10:38.419Z,75.70
2018-02-15T21:13:06.760Z,74.70
2018-02-15T21:15:35.121Z,78.35
2018-02-15T21:18:04.208Z,72.93
2018-02-15T21:20:32.557Z,84.57
2018-02-15T21:23:00.907Z,73.30
2018-02-15T21:25:29.241Z,71.53
2018-02-15T21:27:57.653Z,86.78
2018-02-15T21:30:26.268Z,91.53
2018-02-15T21:32:54.881Z,79.07
2018-02-15T21:35:23.226Z,73.10
2018-02-15T21:37:51.575Z,82.10
2018-02-15T21:40:19.965Z,75.80
2018-02-15T21:42:48.309Z,88.15
2018-02-15T21:45:16.672Z,90.70
2018-02-15T21:47:45.065Z,86.82
2018-02-15T21:50:13.404Z,77.80
2018-02-15T21:52:42.122Z,87.07
2018-02-15T21:55:10.460Z,86.43
2018-02-15T21:57:38.794Z,81.37
2018-02-15T22:00:07.967Z,91.18
2018-02-15T22:02:36.291Z,86.75
2018-02-15T22:05:04.618Z,88.35
2018-02-15T22:07:32.976Z,84.45
2018-02-15T22:10:01.297Z,93.75
2018-02-15T22:12:29.615Z,93.62
2018-02-15T22:14:58.163Z,86.80
2018-02-15T22:17:26.530Z,89.13
2018-02-15T22:19:54.865Z,87.00
2018-02-15T22:22:23.237Z,92.93
2018-02-15T22:24:51.581Z,107.03
2018-02-15T22:27:20.699Z,85.20
2018-02-15T22:29:49.083Z,86.30
2018-02-15T22:32:17.412Z,89.55
2018-02-15T22:34:45.993Z,92.20
2018-02-15T22:37:14.414Z,90.78
2018-02-15T22:39:43.540Z,83.25
2018-02-15T22:42:11.846Z,86.75
2018-02-15T22:44:40.209Z,87.80
2018-02-15T22:47:08.516Z,97.60
2018-02-15T22:49:36.844Z,87.43
2018-02-15T22:52:05.177Z,92.53
2018-02-15T22:54:33.508Z,89.90
2018-02-15T22:57:01.841Z,92.80
2018-02-15T22:59:30.681Z,98.37
2018-02-15T23:01:59.004Z,100.68
2018-02-15T23:04:28.128Z,83.80
2018-02-15T23:06:57.268Z,97.70
2018-02-15T23:09:25.593Z,93.50
2018-02-15T23:11:54.707Z,118.75
2018-02-15T23:14:23.835Z,109.32
2018-02-15T23:16:52.157Z,107.60
2018-02-15T23:19:20.465Z,95.03
2018-02-15T23:21:49.840Z,101.45
2018-02-15T23:24:18.168Z,102.85
2018-02-15T23:26:46.519Z,100.03
2018-02-15T23:29:14.874Z,104.57
2018-02-15T23:31:43.209Z,112.45
2018-02-15T23:34:11.553Z,95.97
2018-02-15T23:36:40.679Z,103.10
2018-02-15T23:39:08.989Z,121.05
2018-02-15T23:41:37.305Z,108.75
2018-02-15T23:44:05.991Z,113.70
2018-02-15T23:46:34.290Z,111.00
2018-02-15T23:49:02.615Z,112.93
2018-02-15T23:51:31.741Z,108.57
2018-02-15T23:54:00.884Z,92.65
2018-02-15T23:56:29.220Z,102.75
2018-02-15T23:58:57.548Z,101.38
